Griffiss International Airport
KRME : now visible

Airfield :











YOU CAN JOIN US ON...

 
LOGIN :

Register | Disclaimer

   EN    FR    IT 

 









Legend :    VFR   Marginal VFR   IFR   Intensive IFR   Very Intensive IFR
Visi :
Ceiling :
>= 8 km
>= 3000ft
5 to 8 km
1000 to 3000 ft
1500m to 5 km
500 to 1000 ft
800 to 1500m
200 to 500 ft
< 800m
< 200 ft
Symbols :   Thunderstorms  Fog  Heavy snow  Heavy precipitations  Wind > 20 kt







- Airport Elevation : 504 ft


KRME - Griffiss International

CURRENT METAR :
  • 191253Z 10005KT 10SM SCT110 16/13 A2995 RMK AO2 SLP139 T01560128

EXPIRED METARs :
  • 191153Z 12007KT 10SM BKN110 14/12 A2996 RMK AO2 SLP142 60021 70021 T01390117 10139 20106 58004
  • 191053Z 11008KT 10SM SCT090 12/10 A2997 RMK AO2 SLP145 T01220100

TAF KRME
Valid from the 19 at 13:00 until the 20 at 12:00 UTC


191259Z 1913/2012 11008KT P6SM SCT100
FM191500 18007KT P6SM BKN040
FM192100 18006G20KT 5SM -SHRA BKN040
TEMPO 1923/2003 2SM TSRA BR OVC035CB
FM200700 19007KT P6SM OVC070
KZBW FIR / North America



MET'MAP, your aeronautical weather chart ! - Copyright ORBIFLY December 2007 - Disclaimer

ORBIFLY MET'MAP TEAM :

Programming & Development : Alexandra Zaïnal
Concept & Development : Baudouin d'Aumeries
Co-Development & Prog : Marc-Olivier Méhu
Technical & hardware support : Manuel Goepfert

Contact : metmap@orbifly.com




SOURCES & CREDITS :

   NOAA       Earth
Advisory